createdAt,value
2023-01-09T00:00:19.055Z,23.2
2023-01-09T00:01:21.886Z,23.3
2023-01-09T00:02:24.448Z,23.3
2023-01-09T00:03:26.974Z,23.2
2023-01-09T00:04:29.568Z,23.3
2023-01-09T00:05:32.117Z,23.3
2023-01-09T00:06:34.633Z,23.3
2023-01-09T00:07:37.171Z,23.3
2023-01-09T00:08:39.687Z,23.4
2023-01-09T00:09:41.929Z,23.4
2023-01-09T00:10:44.472Z,23.4
2023-01-09T00:11:46.702Z,23.3
2023-01-09T00:12:49.207Z,23.2
2023-01-09T00:13:51.821Z,23.3
2023-01-09T00:14:54.118Z,23.4
2023-01-09T00:15:55.810Z,23.4
2023-01-09T00:16:58.128Z,23.5
2023-01-09T00:18:00.680Z,23.4
2023-01-09T00:19:03.175Z,23.4
2023-01-09T00:20:05.795Z,23.4
2023-01-09T00:21:07.863Z,23.5
2023-01-09T00:22:09.830Z,23.4
2023-01-09T00:23:12.379Z,23.4
2023-01-09T00:24:14.903Z,23.5
2023-01-09T00:25:17.137Z,23.4
2023-01-09T00:26:19.685Z,23.5
2023-01-09T00:27:22.176Z,23.4
2023-01-09T00:28:24.367Z,23.5
2023-01-09T00:29:26.915Z,23.2
2023-01-09T00:30:29.158Z,23.4
2023-01-09T00:31:31.631Z,23.3
2023-01-09T00:32:33.889Z,23.4
2023-01-09T00:33:36.118Z,23.3
2023-01-09T00:34:38.660Z,23.4
2023-01-09T00:35:41.279Z,23.7
2023-01-09T00:36:43.311Z,23.2
2023-01-09T00:37:45.808Z,23.3
2023-01-09T00:38:48.323Z,23.4
2023-01-09T00:39:50.852Z,23.4
2023-01-09T00:40:53.104Z,23.4
2023-01-09T00:41:55.340Z,23.5
2023-01-09T00:42:57.584Z,23.5
2023-01-09T00:43:59.819Z,23.5
2023-01-09T00:45:05.877Z,23.5
2023-01-09T00:46:08.133Z,23.4
2023-01-09T00:47:10.735Z,23.6
2023-01-09T00:48:13.269Z,23.5
2023-01-09T00:49:15.802Z,23.5
2023-01-09T00:50:18.051Z,23.4
2023-01-09T00:51:20.683Z,23.5
2023-01-09T00:52:22.978Z,23.4
2023-01-09T00:53:25.225Z,23.5
2023-01-09T00:54:27.485Z,23.4
2023-01-09T00:55:29.994Z,23.5
2023-01-09T00:56:32.539Z,23.5
2023-01-09T00:57:34.767Z,23.5
2023-01-09T00:58:36.981Z,23.5
2023-01-09T00:59:39.504Z,23.3
2023-01-09T01:00:42.012Z,23.6
2023-01-09T01:01:44.628Z,23.5
2023-01-09T01:02:48.234Z,23.6
2023-01-09T01:03:50.868Z,23.7
2023-01-09T01:04:53.390Z,23.8
2023-01-09T01:05:55.644Z,23.5
2023-01-09T01:06:58.224Z,23.8
2023-01-09T01:08:00.750Z,23.6
2023-01-09T01:09:02.985Z,23.6
2023-01-09T01:10:05.479Z,23.6
2023-01-09T01:11:07.977Z,23.7
2023-01-09T01:12:10.474Z,23.5
2023-01-09T01:13:12.715Z,23.5
2023-01-09T01:14:15.215Z,23.7
2023-01-09T01:15:17.451Z,23.6
2023-01-09T01:16:19.806Z,23.8
2023-01-09T01:17:22.344Z,23.5
2023-01-09T01:18:24.872Z,23.6
2023-01-09T01:19:27.422Z,23.6
2023-01-09T01:20:29.937Z,23.6
2023-01-09T01:21:32.442Z,23.6
2023-01-09T01:22:35.019Z,23.8
2023-01-09T01:23:37.299Z,23.6
2023-01-09T01:24:39.832Z,23.7
2023-01-09T01:25:41.826Z,23.5
2023-01-09T01:26:44.366Z,23.6
2023-01-09T01:27:46.859Z,23.6
2023-01-09T01:28:49.411Z,23.8
2023-01-09T01:29:51.931Z,23.6
2023-01-09T01:30:53.872Z,23.6
2023-01-09T01:31:56.347Z,23.6
2023-01-09T01:32:58.861Z,23.8
2023-01-09T01:34:01.408Z,23.7
2023-01-09T01:35:03.951Z,23.7
2023-01-09T01:36:06.482Z,23.6
2023-01-09T01:37:08.778Z,23.6
2023-01-09T01:38:11.370Z,23.6
2023-01-09T01:39:13.921Z,23.6
2023-01-09T01:40:16.465Z,23.6
2023-01-09T01:41:18.388Z,23.7
2023-01-09T01:42:20.607Z,23.6
2023-01-09T01:43:22.884Z,23.6
2023-01-09T01:44:25.111Z,23.5
2023-01-09T01:45:27.618Z,23.6
2023-01-09T01:46:29.871Z,23.7
2023-01-09T01:47:32.218Z,23.7
2023-01-09T01:48:34.716Z,23.7
2023-01-09T01:49:36.936Z,23.7
2023-01-09T01:50:39.176Z,23.6
2023-01-09T01:51:41.691Z,23.7
2023-01-09T01:52:43.937Z,23.7
2023-01-09T01:53:46.634Z,23.7
2023-01-09T01:54:49.157Z,23.8
2023-01-09T01:55:51.420Z,23.8
2023-01-09T01:56:53.932Z,23.8
2023-01-09T01:57:55.867Z,23.7
2023-01-09T01:58:58.394Z,23.8
2023-01-09T02:00:00.629Z,23.6
2023-01-09T02:01:02.980Z,23.7
2023-01-09T02:02:06.219Z,23.6
2023-01-09T02:03:09.958Z,23.8
2023-01-09T02:04:12.490Z,23.7
2023-01-09T02:05:14.445Z,23.7
2023-01-09T02:06:17.015Z,23.7
2023-01-09T02:07:19.534Z,23.7
2023-01-09T02:08:22.047Z,23.7
2023-01-09T02:09:24.670Z,23.8
2023-01-09T02:10:26.994Z,23.7
2023-01-09T02:11:29.557Z,23.7
2023-01-09T02:12:31.782Z,23.8
2023-01-09T02:13:34.022Z,23.8
2023-01-09T02:14:36.252Z,23.6
2023-01-09T02:15:38.771Z,23.7
2023-01-09T02:16:41.374Z,23.7
2023-01-09T02:17:43.899Z,23.8
2023-01-09T02:18:46.383Z,23.6
2023-01-09T02:19:48.919Z,23.6
2023-01-09T02:20:51.133Z,23.9
2023-01-09T02:21:53.664Z,23.8
2023-01-09T02:22:55.919Z,23.9
2023-01-09T02:23:58.453Z,23.8
2023-01-09T02:25:01.041Z,23.7
2023-01-09T02:26:03.609Z,23.8
2023-01-09T02:27:05.581Z,23.7
2023-01-09T02:28:07.511Z,23.8
2023-01-09T02:29:09.996Z,23.7
2023-01-09T02:30:12.225Z,23.7
2023-01-09T02:31:14.511Z,23.7
2023-01-09T02:32:17.319Z,23.6
2023-01-09T02:33:19.547Z,23.6
2023-01-09T02:34:22.067Z,23.7
2023-01-09T02:35:24.654Z,23.7
2023-01-09T02:36:27.181Z,23.6
2023-01-09T02:37:29.723Z,23.7
2023-01-09T02:38:31.944Z,23.7
2023-01-09T02:39:34.192Z,23.7
2023-01-09T02:40:36.829Z,23.7
2023-01-09T02:41:39.389Z,23.8
2023-01-09T02:42:41.927Z,23.7
2023-01-09T02:43:44.489Z,23.8
2023-01-09T02:44:46.707Z,23.8
2023-01-09T02:45:48.706Z,23.8
2023-01-09T02:46:51.494Z,23.7
2023-01-09T02:47:53.712Z,23.9
2023-01-09T02:48:55.937Z,23.7
2023-01-09T02:49:58.437Z,23.8
2023-01-09T02:51:00.922Z,23.7
2023-01-09T02:52:03.209Z,23.8
2023-01-09T02:53:05.451Z,23.7
2023-01-09T02:54:07.738Z,23.8
2023-01-09T02:55:10.245Z,23.8
2023-01-09T02:56:12.920Z,23.9
2023-01-09T02:57:15.458Z,23.8
2023-01-09T02:58:17.968Z,23.7
2023-01-09T02:59:20.484Z,23.8
2023-01-09T03:00:22.999Z,23.8
2023-01-09T03:01:25.580Z,23.7
2023-01-09T03:02:28.656Z,23.6
2023-01-09T03:03:31.208Z,23.7
2023-01-09T03:04:33.467Z,23.8
2023-01-09T03:05:36.018Z,23.8
2023-01-09T03:06:38.254Z,23.8
2023-01-09T03:07:40.748Z,23.8
2023-01-09T03:08:42.716Z,23.9
2023-01-09T03:09:44.951Z,23.8
2023-01-09T03:10:46.889Z,23.7
2023-01-09T03:11:49.484Z,23.8
2023-01-09T03:12:52.008Z,23.9
2023-01-09T03:13:54.515Z,23.8
2023-01-09T03:14:57.005Z,23.8
2023-01-09T03:15:59.555Z,23.8
2023-01-09T03:17:02.366Z,23.6
2023-01-09T03:18:04.590Z,23.8
2023-01-09T03:19:07.123Z,23.7
2023-01-09T03:20:09.632Z,23.8
2023-01-09T03:21:12.137Z,23.8
2023-01-09T03:22:14.660Z,23.9
2023-01-09T03:23:17.196Z,23.7
2023-01-09T03:24:19.495Z,23.8
2023-01-09T03:25:21.990Z,23.8
2023-01-09T03:26:24.553Z,23.8
2023-01-09T03:27:27.137Z,23.8
2023-01-09T03:28:29.431Z,23.7
2023-01-09T03:29:31.943Z,23.7
2023-01-09T03:30:34.433Z,23.8
2023-01-09T03:31:36.775Z,23.9
2023-01-09T03:32:39.377Z,23.8
2023-01-09T03:33:41.307Z,23.8
2023-01-09T03:34:43.800Z,23.8
2023-01-09T03:35:46.324Z,23.9
2023-01-09T03:36:48.812Z,23.8
2023-01-09T03:37:51.080Z,23.9
2023-01-09T03:38:53.309Z,23.8
2023-01-09T03:39:55.857Z,23.8
2023-01-09T03:40:58.361Z,23.8
2023-01-09T03:42:00.585Z,23.7
2023-01-09T03:43:03.196Z,23.8
2023-01-09T03:44:05.741Z,23.9
2023-01-09T03:45:08.245Z,23.8
2023-01-09T03:46:10.551Z,23.9
2023-01-09T03:47:13.218Z,23.9
2023-01-09T03:48:15.738Z,23.8
2023-01-09T03:49:17.724Z,23.9
2023-01-09T03:50:19.782Z,23.9
2023-01-09T03:51:22.286Z,23.8
2023-01-09T03:52:24.764Z,23.9
2023-01-09T03:53:27.260Z,23.8
2023-01-09T03:54:29.778Z,23.9
2023-01-09T03:55:32.304Z,23.8
2023-01-09T03:56:34.836Z,23.8
2023-01-09T03:57:37.369Z,23.8
2023-01-09T03:58:39.954Z,23.9
2023-01-09T03:59:42.501Z,24
2023-01-09T04:00:45.052Z,24
2023-01-09T04:01:48.070Z,24
2023-01-09T04:02:51.438Z,23.9
2023-01-09T04:03:54.028Z,23.9
2023-01-09T04:04:56.489Z,23.9
2023-01-09T04:05:58.733Z,23.9
2023-01-09T04:07:01.292Z,24
2023-01-09T04:08:03.539Z,23.9
2023-01-09T04:09:06.028Z,23.9
2023-01-09T04:10:07.977Z,23.8
2023-01-09T04:11:10.539Z,24
2023-01-09T04:12:13.139Z,23.8
2023-01-09T04:13:15.638Z,23.9
2023-01-09T04:14:17.954Z,23.8
2023-01-09T04:15:20.227Z,23.9
2023-01-09T04:16:22.484Z,23.8
2023-01-09T04:17:25.236Z,23.8
2023-01-09T04:18:27.771Z,23.9
2023-01-09T04:19:30.651Z,23.7
2023-01-09T04:20:32.918Z,23.7
2023-01-09T04:21:34.868Z,23.7
2023-01-09T04:22:37.060Z,23.7
2023-01-09T04:23:39.684Z,23.7
2023-01-09T04:24:42.209Z,23.7
2023-01-09T04:25:44.448Z,23.6
2023-01-09T04:26:46.968Z,23.6
2023-01-09T04:27:49.404Z,23.8
2023-01-09T04:28:51.936Z,23.6
2023-01-09T04:29:54.520Z,23.7
2023-01-09T04:30:57.074Z,23.6
2023-01-09T04:31:59.571Z,23.7
2023-01-09T04:33:02.103Z,23.6
2023-01-09T04:34:04.359Z,23.6
2023-01-09T04:35:06.625Z,23.5
2023-01-09T04:36:09.138Z,23.6
2023-01-09T04:37:11.653Z,23.6
2023-01-09T04:38:13.886Z,23.6
2023-01-09T04:39:16.415Z,23.7
2023-01-09T04:40:18.640Z,23.6
2023-01-09T04:41:20.607Z,23.5
2023-01-09T04:42:23.155Z,23.5
2023-01-09T04:43:25.427Z,23.7
2023-01-09T04:44:27.960Z,23.6
2023-01-09T04:45:30.607Z,23.6
2023-01-09T04:46:33.482Z,23.5
2023-01-09T04:47:36.057Z,23.6
2023-01-09T04:48:38.555Z,23.6
2023-01-09T04:49:41.055Z,23.6
2023-01-09T04:50:43.303Z,23.7
2023-01-09T04:51:45.538Z,23.5
2023-01-09T04:52:48.065Z,23.7
2023-01-09T04:53:50.581Z,23.6
2023-01-09T04:54:52.866Z,23.5
2023-01-09T04:55:55.128Z,23.4
2023-01-09T04:56:57.618Z,23.4
2023-01-09T04:58:00.162Z,23.5
2023-01-09T04:59:02.658Z,23.4
2023-01-09T05:00:05.178Z,23.6
2023-01-09T05:01:07.867Z,23.5
2023-01-09T05:02:11.291Z,23.6
2023-01-09T05:03:14.494Z,23.6
2023-01-09T05:04:17.031Z,23.6
2023-01-09T05:05:19.862Z,23.5
2023-01-09T05:06:22.432Z,23.5
2023-01-09T05:07:24.874Z,23.5
2023-01-09T05:08:27.402Z,23.5
2023-01-09T05:09:29.728Z,23.5
2023-01-09T05:10:32.284Z,23.6
2023-01-09T05:11:34.833Z,23.4
2023-01-09T05:12:37.374Z,23.5
2023-01-09T05:13:40.125Z,23.5
2023-01-09T05:14:42.676Z,23.5
2023-01-09T05:15:44.920Z,23.5
2023-01-09T05:16:46.997Z,23.5
2023-01-09T05:17:49.559Z,23.7
2023-01-09T05:18:52.062Z,23.5
2023-01-09T05:19:54.275Z,23.6
2023-01-09T05:20:56.569Z,23.5
2023-01-09T05:21:59.121Z,23.6
2023-01-09T05:23:01.064Z,23.5
2023-01-09T05:24:03.293Z,23.6
2023-01-09T05:25:05.832Z,23.4
2023-01-09T05:26:08.353Z,23.5
2023-01-09T05:27:10.874Z,23.5
2023-01-09T05:28:13.121Z,23.5
2023-01-09T05:29:15.674Z,23.5
2023-01-09T05:30:18.592Z,23.4
2023-01-09T05:31:21.219Z,23.5
2023-01-09T05:32:23.926Z,23.5
2023-01-09T05:33:26.465Z,23.4
2023-01-09T05:34:28.460Z,23.5
2023-01-09T05:35:30.970Z,23.5
2023-01-09T05:36:33.245Z,23.4
2023-01-09T05:37:35.513Z,23.6
2023-01-09T05:38:37.755Z,23.3
2023-01-09T05:39:40.258Z,23.4
2023-01-09T05:40:42.235Z,23.3
2023-01-09T05:41:44.473Z,23.4
2023-01-09T05:42:46.715Z,23.5
2023-01-09T05:43:49.212Z,23.3
2023-01-09T05:44:51.763Z,23.5
2023-01-09T05:45:54.329Z,23.5
2023-01-09T05:46:57.081Z,23.4
2023-01-09T05:48:01.434Z,23.4
2023-01-09T05:49:03.451Z,23.4
2023-01-09T05:50:05.996Z,23.4
2023-01-09T05:51:08.512Z,23.5
2023-01-09T05:52:11.085Z,23.4
2023-01-09T05:53:12.929Z,23.4
2023-01-09T05:54:15.788Z,23.4
2023-01-09T05:55:18.369Z,23.5
2023-01-09T05:56:20.625Z,23.4
2023-01-09T05:57:23.157Z,23.4
2023-01-09T05:58:25.132Z,23.3
2023-01-09T05:59:27.376Z,23.6
2023-01-09T06:00:29.915Z,23.4
2023-01-09T06:01:32.509Z,23.6
2023-01-09T06:02:35.473Z,23.4
2023-01-09T06:03:39.040Z,23.5
2023-01-09T06:04:41.590Z,23.3
2023-01-09T06:05:44.125Z,23.3
2023-01-09T06:06:46.638Z,23.4
2023-01-09T06:07:49.179Z,23.4
2023-01-09T06:08:51.676Z,23.5
2023-01-09T06:09:53.655Z,23.3
2023-01-09T06:10:56.167Z,23.4
2023-01-09T06:11:58.669Z,23.3
2023-01-09T06:13:01.165Z,23.4
2023-01-09T06:14:03.668Z,23.5
2023-01-09T06:15:08.044Z,23.4
2023-01-09T06:16:10.958Z,23.4
2023-01-09T06:17:13.656Z,23.3
2023-01-09T06:18:15.923Z,23.4
2023-01-09T06:19:18.546Z,23.4
2023-01-09T06:20:21.083Z,23.4
2023-01-09T06:21:23.598Z,23.5
2023-01-09T06:22:25.907Z,23.3
2023-01-09T06:23:27.853Z,23.4
2023-01-09T06:24:30.111Z,23.4
2023-01-09T06:25:32.345Z,23.4
2023-01-09T06:26:34.855Z,23.4
2023-01-09T06:27:37.084Z,23.4
2023-01-09T06:28:39.599Z,23.3
2023-01-09T06:29:47.248Z,23.4
2023-01-09T06:30:49.796Z,23.5
2023-01-09T06:31:52.270Z,23.4
2023-01-09T06:32:54.553Z,23.4
2023-01-09T06:33:56.336Z,23.3
2023-01-09T06:34:59.338Z,23.3
2023-01-09T06:36:02.051Z,23.3
2023-01-09T06:37:04.549Z,23.3
2023-01-09T06:38:07.064Z,23.2
2023-01-09T06:39:09.580Z,23.2
2023-01-09T06:40:12.091Z,23.3
2023-01-09T06:41:14.065Z,23.2
2023-01-09T06:42:16.600Z,23.4
2023-01-09T06:43:19.271Z,23.3
2023-01-09T06:44:22.020Z,23.3
2023-01-09T06:45:24.455Z,23.3
2023-01-09T06:46:27.072Z,23.3
2023-01-09T06:47:29.462Z,23.2
2023-01-09T06:48:32.054Z,23.2
2023-01-09T06:49:34.291Z,23.5
2023-01-09T06:50:37.172Z,23.3
2023-01-09T06:51:39.451Z,23.4
2023-01-09T06:52:41.971Z,23.3
2023-01-09T06:53:44.225Z,23.3
2023-01-09T06:54:46.475Z,23.3
2023-01-09T06:55:48.438Z,23.3
2023-01-09T06:56:50.950Z,23.4
2023-01-09T06:57:53.793Z,23.4
2023-01-09T06:58:56.347Z,23.2
2023-01-09T06:59:58.853Z,23.2
2023-01-09T07:01:01.521Z,23.3
2023-01-09T07:02:04.523Z,23.4
2023-01-09T07:03:07.226Z,23.4
2023-01-09T07:04:09.798Z,23.3
2023-01-09T07:05:12.421Z,23.3
2023-01-09T07:06:14.767Z,23.3
2023-01-09T07:07:17.349Z,23.3
2023-01-09T07:08:19.867Z,23.3
2023-01-09T07:09:22.122Z,23.1
2023-01-09T07:10:24.650Z,23.3
2023-01-09T07:11:26.874Z,23.3
2023-01-09T07:12:29.101Z,23.3
2023-01-09T07:13:30.790Z,23.4
2023-01-09T07:14:33.045Z,23.2
2023-01-09T07:15:35.612Z,23.2
2023-01-09T07:16:37.874Z,23.3
2023-01-09T07:17:40.141Z,23.3
2023-01-09T07:18:42.681Z,23.5
2023-01-09T07:19:44.954Z,23.3
2023-01-09T07:20:46.957Z,23.2
2023-01-09T07:21:49.582Z,23.2
2023-01-09T07:22:52.153Z,23.3
2023-01-09T07:23:54.835Z,23.3
2023-01-09T07:24:57.380Z,23.2
2023-01-09T07:25:59.707Z,23.4
2023-01-09T07:27:02.043Z,23.3
2023-01-09T07:28:04.660Z,23.3
2023-01-09T07:29:07.220Z,23.1
2023-01-09T07:30:09.720Z,23.3
2023-01-09T07:31:11.997Z,23.2
2023-01-09T07:32:14.835Z,23.3
2023-01-09T07:33:17.347Z,23.1
2023-01-09T07:34:19.292Z,23.2
2023-01-09T07:35:21.938Z,23.2
2023-01-09T07:36:24.506Z,23.1
2023-01-09T07:37:26.562Z,23.1
2023-01-09T07:38:29.149Z,23.3
2023-01-09T07:39:31.667Z,23.2
2023-01-09T07:40:34.256Z,23.1
2023-01-09T07:41:36.254Z,23.3
2023-01-09T07:42:38.807Z,23.2
2023-01-09T07:43:40.738Z,23
2023-01-09T07:44:43.288Z,23.2
2023-01-09T07:45:45.548Z,23.2
2023-01-09T07:46:47.783Z,23.2
2023-01-09T07:47:50.311Z,23.2
2023-01-09T07:48:52.526Z,23.2
2023-01-09T07:49:54.780Z,23.4
2023-01-09T07:50:57.343Z,23.3
2023-01-09T07:51:59.856Z,23.3
2023-01-09T07:53:02.569Z,23.3
2023-01-09T07:54:05.099Z,23.3
2023-01-09T07:55:07.389Z,23.4
2023-01-09T07:56:09.628Z,23.1
2023-01-09T07:57:12.221Z,23.1
2023-01-09T07:58:14.805Z,23.3
2023-01-09T07:59:17.325Z,23.4
2023-01-09T08:00:19.866Z,23.2
2023-01-09T08:01:22.410Z,23.4
2023-01-09T08:02:25.364Z,23.3
2023-01-09T08:03:28.231Z,23.2
2023-01-09T08:04:30.827Z,23.2
2023-01-09T08:05:33.405Z,23.2
2023-01-09T08:06:35.996Z,23.3
2023-01-09T08:07:38.601Z,23.2
2023-01-09T08:08:41.259Z,23.2
2023-01-09T08:09:43.648Z,23.1
2023-01-09T08:10:46.313Z,23.1
2023-01-09T08:11:48.878Z,23.2
2023-01-09T08:12:51.158Z,23.2
2023-01-09T08:13:53.703Z,23.2
2023-01-09T08:14:56.235Z,23.1
2023-01-09T08:15:58.579Z,23
2023-01-09T08:17:01.659Z,23
2023-01-09T08:18:03.669Z,23.1
2023-01-09T08:19:06.271Z,23.1
2023-01-09T08:20:08.565Z,23.2
2023-01-09T08:21:11.088Z,23.1
2023-01-09T08:22:13.467Z,23.1
2023-01-09T08:23:16.110Z,23
2023-01-09T08:24:18.789Z,23.2
2023-01-09T08:25:21.090Z,23.1
2023-01-09T08:26:23.706Z,23
2023-01-09T08:27:25.984Z,23
2023-01-09T08:28:28.320Z,23.2
2023-01-09T08:29:30.851Z,23.3
2023-01-09T08:30:33.118Z,23.1
2023-01-09T08:31:35.408Z,23.2
2023-01-09T08:32:38.321Z,23.1
2023-01-09T08:33:40.710Z,23
2023-01-09T08:34:43.351Z,23.2
2023-01-09T08:35:45.908Z,23.2
2023-01-09T08:36:48.662Z,23.1
2023-01-09T08:37:51.235Z,23.2
2023-01-09T08:38:53.881Z,23.1
2023-01-09T08:39:56.496Z,23.3
2023-01-09T08:40:59.163Z,23.1
2023-01-09T08:42:01.418Z,23.3
2023-01-09T08:43:03.388Z,23.2
2023-01-09T08:44:05.910Z,23.2
2023-01-09T08:45:07.865Z,23
2023-01-09T08:46:10.415Z,23.2
2023-01-09T08:47:12.459Z,23.2
2023-01-09T08:48:14.727Z,23.1
2023-01-09T08:49:17.252Z,23.3
2023-01-09T08:50:19.482Z,23.1
2023-01-09T08:51:22.007Z,23.1
2023-01-09T08:52:24.517Z,23.2
2023-01-09T08:53:26.786Z,23.1
2023-01-09T08:54:31.153Z,23.2
2023-01-09T08:55:34.018Z,23.1
2023-01-09T08:56:36.466Z,23
2023-01-09T08:57:38.959Z,23.2
2023-01-09T08:58:41.232Z,23.2
2023-01-09T08:59:43.754Z,23.2
2023-01-09T09:00:46.302Z,23.3
2023-01-09T09:01:48.867Z,23.2
2023-01-09T09:02:52.151Z,23.3
2023-01-09T09:03:54.547Z,23.1
2023-01-09T09:04:56.014Z,23.2
2023-01-09T09:05:58.562Z,23.2
2023-01-09T09:07:00.956Z,23.1
2023-01-09T09:08:03.242Z,23.2
2023-01-09T09:09:05.763Z,23
2023-01-09T09:10:08.280Z,23.1
2023-01-09T09:11:10.571Z,23.1
2023-01-09T09:12:13.233Z,23.2
2023-01-09T09:13:15.480Z,23.2
2023-01-09T09:14:17.984Z,23.2
2023-01-09T09:15:20.537Z,23.3
2023-01-09T09:16:23.071Z,23
2023-01-09T09:17:25.794Z,23.1
2023-01-09T09:18:28.014Z,23.3
2023-01-09T09:19:30.556Z,23
2023-01-09T09:20:32.524Z,23.1
2023-01-09T09:21:34.780Z,23.2
2023-01-09T09:22:37.042Z,23.2
2023-01-09T09:23:39.291Z,23.2
2023-01-09T09:24:41.527Z,23.1
2023-01-09T09:25:43.812Z,23.4
2023-01-09T09:26:46.094Z,23.2
2023-01-09T09:27:48.450Z,23.3
2023-01-09T09:28:51.007Z,23.2
2023-01-09T09:29:53.536Z,23.1
2023-01-09T09:30:55.839Z,23.3
2023-01-09T09:31:59.984Z,23.3
2023-01-09T09:33:02.971Z,23.2
2023-01-09T09:34:05.009Z,23.2
2023-01-09T09:35:07.271Z,23.2
2023-01-09T09:36:09.577Z,23.3
2023-01-09T09:37:12.188Z,23.3
2023-01-09T09:38:14.765Z,23.2
2023-01-09T09:39:16.784Z,23.1
2023-01-09T09:40:19.408Z,23.3
2023-01-09T09:41:21.641Z,23
2023-01-09T09:42:23.045Z,23.3
2023-01-09T09:43:25.742Z,23.3
2023-01-09T09:44:28.269Z,23.1
2023-01-09T09:45:30.550Z,23.1
2023-01-09T09:46:32.887Z,23.2
2023-01-09T09:47:35.719Z,23.1
2023-01-09T09:48:37.711Z,23.2
2023-01-09T09:49:39.712Z,23
2023-01-09T09:50:42.243Z,23.1
2023-01-09T09:51:44.765Z,23.3
2023-01-09T09:52:47.007Z,23.4
2023-01-09T09:53:49.777Z,23
2023-01-09T09:54:52.307Z,23.2
2023-01-09T09:55:54.882Z,23.1
2023-01-09T09:56:57.183Z,23.2
2023-01-09T09:57:59.428Z,23.3
2023-01-09T09:59:02.062Z,23.2
2023-01-09T10:00:04.038Z,23.2
2023-01-09T10:01:06.582Z,23.2
2023-01-09T10:02:08.621Z,23.2
2023-01-09T10:03:10.792Z,23.2
2023-01-09T10:04:17.683Z,23.4
2023-01-09T10:05:20.276Z,23.2
2023-01-09T10:06:22.866Z,23.2
2023-01-09T10:07:25.502Z,23.3
2023-01-09T10:08:28.041Z,23
2023-01-09T10:09:30.574Z,23.3
2023-01-09T10:10:32.529Z,23.1
2023-01-09T10:11:35.139Z,23.1
2023-01-09T10:12:37.701Z,23.2
2023-01-09T10:13:40.272Z,23.1
2023-01-09T10:14:43.100Z,23.2
2023-01-09T10:15:44.828Z,23
2023-01-09T10:16:47.230Z,23.2
2023-01-09T10:17:49.202Z,23.2
2023-01-09T10:18:51.449Z,23
2023-01-09T10:19:53.690Z,23.1
2023-01-09T10:20:55.689Z,23.2
2023-01-09T10:21:57.956Z,23.2
2023-01-09T10:22:59.935Z,23.2
2023-01-09T10:24:02.504Z,23
2023-01-09T10:25:04.764Z,23.1
2023-01-09T10:26:07.302Z,23.2
2023-01-09T10:27:09.791Z,23.1
2023-01-09T10:28:12.333Z,23.1
2023-01-09T10:29:14.887Z,23.1
2023-01-09T10:30:17.541Z,23.1
2023-01-09T10:31:19.841Z,23.3
2023-01-09T10:32:22.723Z,23.3
2023-01-09T10:33:25.257Z,23.4
2023-01-09T10:34:27.551Z,23
2023-01-09T10:35:36.262Z,23.3
2023-01-09T10:36:35.110Z,23
2023-01-09T10:37:37.927Z,23
2023-01-09T10:38:40.188Z,23.2
2023-01-09T10:39:42.444Z,23.1
2023-01-09T10:40:45.074Z,23.1
2023-01-09T10:41:47.057Z,23.2
2023-01-09T10:42:49.392Z,23
2023-01-09T10:43:51.677Z,23.1
2023-01-09T10:44:54.236Z,23
2023-01-09T10:45:57.005Z,23
2023-01-09T10:46:59.064Z,23.2
2023-01-09T10:48:01.733Z,23.2
2023-01-09T10:49:04.247Z,23.1
2023-01-09T10:50:06.763Z,23.1
2023-01-09T10:51:09.006Z,23.1
2023-01-09T10:52:11.553Z,23
2023-01-09T10:53:17.164Z,23.3
2023-01-09T10:54:19.723Z,23.1
2023-01-09T10:55:22.259Z,23.1
2023-01-09T10:56:23.973Z,23.2
2023-01-09T10:57:26.582Z,23
2023-01-09T10:58:29.105Z,23.1
2023-01-09T10:59:31.117Z,23.1
2023-01-09T11:00:33.170Z,23
2023-01-09T11:01:35.831Z,23
2023-01-09T11:02:38.458Z,23.1
2023-01-09T11:03:41.534Z,23.2
2023-01-09T11:04:43.989Z,23.3
2023-01-09T11:05:46.236Z,23.1
2023-01-09T11:06:48.747Z,23.2
2023-01-09T11:07:51.058Z,23.2
2023-01-09T11:08:53.572Z,23.1
2023-01-09T11:09:56.102Z,23
2023-01-09T11:10:58.387Z,23.1
2023-01-09T11:12:00.652Z,23.2
2023-01-09T11:13:02.880Z,23.1
2023-01-09T11:14:05.419Z,23
2023-01-09T11:15:08.137Z,23.1
2023-01-09T11:16:10.796Z,23.1
2023-01-09T11:17:13.918Z,23
2023-01-09T11:18:16.208Z,23.1
2023-01-09T11:19:18.520Z,23.1
2023-01-09T11:20:20.443Z,23.1
2023-01-09T11:21:22.711Z,23.1
2023-01-09T11:22:25.233Z,23.1
2023-01-09T11:23:27.743Z,23
2023-01-09T11:24:30.016Z,23
2023-01-09T11:25:32.602Z,23
2023-01-09T11:26:34.821Z,23
2023-01-09T11:27:36.767Z,23
2023-01-09T11:28:39.305Z,23.1
2023-01-09T11:29:41.914Z,23
2023-01-09T11:30:44.515Z,23.1
2023-01-09T11:31:47.239Z,23.1
2023-01-09T11:32:50.199Z,23.1
2023-01-09T11:33:52.725Z,23
2023-01-09T11:34:55.247Z,23.3
2023-01-09T11:35:57.539Z,23.3
2023-01-09T11:36:59.893Z,23.1
2023-01-09T11:38:02.764Z,23.2
2023-01-09T11:39:05.275Z,23
2023-01-09T11:40:07.580Z,23.2
2023-01-09T11:41:09.833Z,23.2
2023-01-09T11:42:12.059Z,23.1
2023-01-09T11:43:14.032Z,23.2
2023-01-09T11:44:16.299Z,23
2023-01-09T11:45:18.939Z,23.3
2023-01-09T11:46:21.272Z,23.2
2023-01-09T11:47:23.732Z,23.2
2023-01-09T11:48:26.519Z,23.1
2023-01-09T11:49:29.048Z,23.1
2023-01-09T11:50:31.637Z,23.3
2023-01-09T11:51:33.896Z,23.2
2023-01-09T11:52:36.436Z,23.1
2023-01-09T11:53:38.488Z,23.2
2023-01-09T11:54:40.770Z,23.1
2023-01-09T11:55:43.270Z,23.2
2023-01-09T11:56:45.864Z,23.2
2023-01-09T11:57:48.424Z,23.1
2023-01-09T11:58:50.387Z,23.2
2023-01-09T11:59:52.414Z,23.2
2023-01-09T12:00:55.035Z,23
2023-01-09T12:01:57.614Z,23.2
2023-01-09T12:03:00.234Z,23.3
2023-01-09T12:04:02.865Z,23.1
2023-01-09T12:05:05.391Z,23.1
2023-01-09T12:06:07.923Z,23.1
2023-01-09T12:07:10.166Z,23.2
2023-01-09T12:08:12.438Z,23.2
2023-01-09T12:09:14.958Z,23.1
2023-01-09T12:10:17.502Z,23.1
2023-01-09T12:11:20.029Z,23.2
2023-01-09T12:12:22.294Z,23.1
2023-01-09T12:13:24.568Z,23.1
2023-01-09T12:14:27.099Z,23.1
2023-01-09T12:15:29.623Z,23.2
2023-01-09T12:16:32.249Z,23.1
2023-01-09T12:17:34.932Z,23.1
2023-01-09T12:18:37.456Z,23.2
2023-01-09T12:19:41.949Z,23.1
2023-01-09T12:20:44.292Z,23.2
2023-01-09T12:21:46.812Z,23.2
2023-01-09T12:22:49.072Z,23.1
2023-01-09T12:23:51.609Z,23
2023-01-09T12:24:54.150Z,23.1
2023-01-09T12:25:56.152Z,23.1
2023-01-09T12:26:58.395Z,23.1
2023-01-09T12:28:00.678Z,23.1
2023-01-09T12:29:02.953Z,23
2023-01-09T12:30:05.513Z,23.2
2023-01-09T12:31:07.477Z,23.2
2023-01-09T12:32:10.054Z,23.1
2023-01-09T12:33:12.364Z,23.1
2023-01-09T12:34:14.587Z,23.2
2023-01-09T12:35:17.236Z,23.2
2023-01-09T12:36:19.496Z,23.2
2023-01-09T12:37:22.021Z,23.1
2023-01-09T12:38:24.005Z,23
2023-01-09T12:39:26.906Z,23.2
2023-01-09T12:40:29.196Z,23.2
2023-01-09T12:41:31.744Z,23.2
2023-01-09T12:42:34.002Z,23
2023-01-09T12:43:36.581Z,23.2
2023-01-09T12:44:38.833Z,23.1
2023-01-09T12:45:41.145Z,23.2
2023-01-09T12:46:43.991Z,23.1
2023-01-09T12:47:46.607Z,23.2
2023-01-09T12:48:48.891Z,23.2
2023-01-09T12:49:51.123Z,23.2
2023-01-09T12:50:53.762Z,23.1
2023-01-09T12:51:56.042Z,23.2
2023-01-09T12:52:58.577Z,23
2023-01-09T12:54:00.820Z,23.1
2023-01-09T12:55:05.004Z,23.1
2023-01-09T12:56:07.352Z,23.1
2023-01-09T12:57:09.964Z,23.1
2023-01-09T12:58:12.187Z,23.1
2023-01-09T12:59:14.440Z,23.3
2023-01-09T13:00:16.677Z,23.1
2023-01-09T13:01:19.246Z,23.2
2023-01-09T13:02:22.166Z,23.2
2023-01-09T13:03:24.707Z,23.2
2023-01-09T13:04:26.664Z,23.2
2023-01-09T13:05:28.899Z,23.2
2023-01-09T13:06:31.620Z,23.1
2023-01-09T13:07:33.843Z,23.1
2023-01-09T13:08:35.802Z,23.1
2023-01-09T13:09:38.346Z,23.1
2023-01-09T13:10:40.720Z,23.2
2023-01-09T13:11:43.284Z,23.2
2023-01-09T13:12:45.287Z,23.1
2023-01-09T13:13:47.510Z,23.2
2023-01-09T13:14:49.796Z,23.2
2023-01-09T13:15:52.399Z,23.2
2023-01-09T13:16:55.197Z,23.3
2023-01-09T13:17:57.774Z,23.1
2023-01-09T13:19:00.387Z,23.2
2023-01-09T13:20:02.680Z,23.1
2023-01-09T13:21:04.720Z,23
2023-01-09T13:22:07.465Z,23.1
2023-01-09T13:23:09.791Z,23
2023-01-09T13:24:11.729Z,23.2
2023-01-09T13:25:13.990Z,23.2
2023-01-09T13:26:15.670Z,23.1
2023-01-09T13:27:17.897Z,23.1
2023-01-09T13:28:20.140Z,23.2
2023-01-09T13:29:22.117Z,23.1
2023-01-09T13:30:24.146Z,23.1
2023-01-09T13:31:26.756Z,23
2023-01-09T13:32:29.454Z,23
2023-01-09T13:33:32.006Z,22.9
2023-01-09T13:34:34.040Z,22.9
2023-01-09T13:35:36.599Z,23
2023-01-09T13:36:38.706Z,23
2023-01-09T13:37:41.742Z,23.1
2023-01-09T13:38:44.285Z,23
2023-01-09T13:39:46.650Z,23
2023-01-09T13:40:48.344Z,23.1
2023-01-09T13:41:50.889Z,23
2023-01-09T13:42:53.494Z,23
2023-01-09T13:43:56.044Z,23
2023-01-09T13:44:58.319Z,23
2023-01-09T13:46:00.676Z,23.1
2023-01-09T13:47:03.280Z,23
2023-01-09T13:48:05.620Z,22.9
2023-01-09T13:49:07.901Z,23.1
2023-01-09T13:50:09.950Z,23
2023-01-09T13:51:12.511Z,23.1
2023-01-09T13:52:15.075Z,23.1
2023-01-09T13:53:17.733Z,23
2023-01-09T13:54:20.093Z,23
2023-01-09T13:55:22.822Z,23
2023-01-09T13:56:25.092Z,22.9